Time;durP1;ratioP1;P1;durP2;ratioP2;P2;SDS_P1;SDS_P2;PMS_P1;PMS_P2;Temp;Humidity;BMP_temperature;BMP_pressure;BME280_temperature;BME280_humidity;BME280_pressure;Samples;Min_cycle;Max_cycle;Signal;HPM_P1;HPM_P2
2023/01/31 00:01:09;;;;;;;14.02;2.83;;;8.80;55.70;;;;;;5039262;28;20398;-48
2023/01/31 00:03:38;;;;;;;24.00;3.80;;;8.90;55.70;;;;;;5042812;28;20052;-45
2023/01/31 00:06:13;;;;;;;20.65;3.05;;;8.80;55.70;;;;;;5042864;28;20049;-48
2023/01/31 00:08:41;;;;;;;25.13;5.40;;;8.90;55.70;;;;;;5042555;28;20060;-47
2023/01/31 00:11:10;;;;;;;22.73;3.47;;;8.90;55.60;;;;;;5037749;28;20516;-47
2023/01/31 00:13:37;;;;;;;23.27;3.22;;;8.90;55.60;;;;;;5042985;28;20048;-45
2023/01/31 00:16:05;;;;;;;25.25;5.22;;;8.90;55.50;;;;;;5043814;28;20053;-48
2023/01/31 00:18:33;;;;;;;27.73;3.53;;;8.90;55.50;;;;;;5043115;28;20045;-46
2023/01/31 00:21:05;;;;;;;22.80;3.20;;;8.90;55.40;;;;;;5041076;28;20061;-46
2023/01/31 00:23:33;;;;;;;34.97;4.10;;;8.80;55.40;;;;;;5042911;28;20049;-50
2023/01/31 00:26:09;;;;;;;18.85;3.33;;;8.90;55.50;;;;;;5041274;28;20056;-47
2023/01/31 00:28:37;;;;;;;24.27;3.88;;;8.80;55.50;;;;;;5043477;28;20056;-47
2023/01/31 00:31:04;;;;;;;17.83;3.33;;;8.90;55.50;;;;;;5040060;28;20053;-46
2023/01/31 00:33:32;;;;;;;25.23;4.10;;;8.80;55.40;;;;;;5043951;28;20052;-49
2023/01/31 00:36:02;;;;;;;20.23;3.38;;;8.90;55.50;;;;;;5041902;28;20053;-45
2023/01/31 00:38:29;;;;;;;28.48;4.38;;;8.80;55.40;;;;;;5043501;28;20064;-48
2023/01/31 00:40:56;;;;;;;25.10;3.40;;;8.90;55.40;;;;;;5037736;28;20057;-49
2023/01/31 00:43:25;;;;;;;17.73;3.28;;;8.80;55.40;;;;;;5043418;28;20052;-45
2023/01/31 00:45:52;;;;;;;26.10;3.97;;;8.80;55.40;;;;;;5040540;28;20054;-47
2023/01/31 00:48:19;;;;;;;25.40;3.92;;;8.80;55.30;;;;;;5038944;28;20061;-46
2023/01/31 00:50:47;;;;;;;29.17;4.00;;;8.80;55.30;;;;;;5041416;28;20049;-49
2023/01/31 00:53:14;;;;;;;23.75;3.80;;;8.80;55.30;;;;;;5042501;28;20052;-46
2023/01/31 00:55:41;;;;;;;24.80;3.58;;;8.80;55.20;;;;;;5036190;28;20049;-46
2023/01/31 00:58:09;;;;;;;30.73;4.90;;;8.80;55.30;;;;;;5041719;28;20061;-46
2023/01/31 01:00:37;;;;;;;19.63;3.38;;;8.90;55.30;;;;;;5037625;28;20055;-45
2023/01/31 01:03:05;;;;;;;23.90;3.55;;;8.80;55.30;;;;;;5038618;28;20053;-47
2023/01/31 01:05:32;;;;;;;30.35;4.00;;;8.80;55.30;;;;;;5040913;28;20052;-51
2023/01/31 01:07:59;;;;;;;15.55;2.72;;;8.80;55.20;;;;;;5042096;28;20417;-45
2023/01/31 01:10:26;;;;;;;26.50;3.78;;;8.90;55.20;;;;;;5038750;28;21411;-48
2023/01/31 01:12:54;;;;;;;14.30;2.95;;;8.90;55.20;;;;;;5033088;28;20056;-44
2023/01/31 01:15:21;;;;;;;16.48;3.55;;;8.90;55.10;;;;;;5038782;28;20052;-49
2023/01/31 01:17:50;;;;;;;27.10;4.22;;;8.90;55.10;;;;;;5042083;28;20056;-48
2023/01/31 01:20:18;;;;;;;24.80;3.88;;;8.90;55.10;;;;;;5041129;28;20053;-49
2023/01/31 01:22:46;;;;;;;23.98;4.00;;;8.90;55.00;;;;;;5039195;28;20056;-46
2023/01/31 01:25:13;;;;;;;24.08;3.35;;;8.80;55.00;;;;;;5037701;28;20056;-46
2023/01/31 01:27:40;;;;;;;27.85;4.63;;;8.90;55.10;;;;;;5041461;28;20701;-44
2023/01/31 01:30:09;;;;;;;19.23;3.88;;;8.80;55.10;;;;;;5035975;28;20467;-47
2023/01/31 01:32:37;;;;;;;19.23;2.97;;;8.80;55.00;;;;;;5039156;28;20052;-44
2023/01/31 01:35:06;;;;;;;19.95;3.38;;;8.80;55.10;;;;;;5042188;28;20057;-46
2023/01/31 01:37:34;;;;;;;18.40;2.67;;;8.80;55.10;;;;;;5043443;28;20060;-45
2023/01/31 01:40:01;;;;;;;19.45;3.30;;;8.80;55.10;;;;;;5041950;28;20053;-49
2023/01/31 01:42:34;;;;;;;17.08;3.75;;;8.80;55.60;;;;;;5041422;28;20061;-48
2023/01/31 01:45:04;;;;;;;20.10;3.58;;;8.80;55.20;;;;;;5041023;28;20049;-50
2023/01/31 01:47:37;;;;;;;21.20;3.58;;;8.80;55.60;;;;;;5042158;28;20406;-45
2023/01/31 01:50:12;;;;;;;18.00;3.70;;;8.80;55.10;;;;;;5039434;28;20056;-47
2023/01/31 01:52:41;;;;;;;;;;;8.80;55.00;;;;;;5041008;28;20049;-50
2023/01/31 01:55:16;;;;;;;21.10;3.42;;;8.80;55.10;;;;;;5038863;28;20299;-49
2023/01/31 01:57:46;;;;;;;21.55;3.03;;;8.80;54.80;;;;;;5040192;28;21245;-47
2023/01/31 02:00:18;;;;;;;37.85;5.80;;;8.80;54.70;;;;;;5039384;28;20505;-46
2023/01/31 02:02:47;;;;;;;18.13;3.08;;;8.80;54.70;;;;;;5041001;28;20060;-46
2023/01/31 02:05:19;;;;;;;21.73;3.22;;;8.80;54.70;;;;;;5037736;28;20049;-49
2023/01/31 02:07:47;;;;;;;17.20;3.20;;;8.70;54.70;;;;;;5040659;28;20056;-49
2023/01/31 02:10:19;;;;;;;24.00;3.38;;;8.70;54.80;;;;;;5039279;28;20044;-46
2023/01/31 02:12:47;;;;;;;23.85;3.67;;;8.70;55.20;;;;;;5040247;28;20049;-47
2023/01/31 02:15:14;;;;;;;20.75;3.20;;;8.70;54.70;;;;;;5040408;28;20409;-48
2023/01/31 02:17:42;;;;;;;16.65;2.75;;;8.70;54.70;;;;;;5040728;28;20048;-47
2023/01/31 02:20:31;;;;;;;15.60;2.67;;;8.70;54.70;;;;;;5040689;28;20408;-49
2023/01/31 02:23:14;;;;;;;19.70;3.88;;;8.60;54.70;;;;;;5039894;28;20377;-46
2023/01/31 02:26:05;;;;;;;21.65;3.80;;;8.60;54.70;;;;;;5037783;28;20045;-47
2023/01/31 02:29:04;;;;;;;22.33;3.55;;;8.60;54.60;;;;;;5019757;28;20049;-45
2023/01/31 02:31:59;;;;;;;19.08;2.67;;;8.60;54.60;;;;;;5039195;28;20060;-47
2023/01/31 02:34:36;;;;;;;18.75;3.40;;;8.60;54.60;;;;;;5040483;28;20390;-50
2023/01/31 02:37:16;;;;;;;25.42;3.50;;;8.60;54.50;;;;;;5038367;28;20060;-47
2023/01/31 02:39:52;;;;;;;21.08;4.10;;;8.60;54.50;;;;;;5036901;28;20048;-48
2023/01/31 02:42:28;;;;;;;24.75;3.22;;;8.60;54.60;;;;;;5038979;28;20567;-45
2023/01/31 02:45:00;;;;;;;20.60;2.88;;;8.60;54.70;;;;;;5039309;28;20061;-43
2023/01/31 02:47:36;;;;;;;25.70;3.58;;;8.60;54.60;;;;;;5039123;28;20052;-47
2023/01/31 02:50:12;;;;;;;23.92;3.80;;;8.60;54.60;;;;;;5040769;28;20515;-44
2023/01/31 02:52:46;;;;;;;23.10;3.40;;;8.60;54.50;;;;;;5038252;28;20454;-46
2023/01/31 02:58:03;;;;;;;22.10;4.05;;;8.60;54.60;;;;;;5046178;28;19928;-47
2023/01/31 03:00:34;;;;;;;17.60;2.90;;;8.60;55.00;;;;;;5038427;28;20049;-46
2023/01/31 03:03:06;;;;;;;18.40;2.58;;;8.60;54.60;;;;;;5038659;28;20505;-47
2023/01/31 03:05:34;;;;;;;26.38;3.75;;;8.60;54.60;;;;;;5032952;28;20049;-48
2023/01/31 03:08:04;;;;;;;20.20;3.05;;;8.60;54.60;;;;;;5038562;28;20055;-46
2023/01/31 03:10:49;;;;;;;20.13;3.50;;;8.60;54.50;;;;;;5039281;28;20408;-48
2023/01/31 03:13:40;;;;;;;22.40;3.47;;;8.60;54.60;;;;;;5043664;28;20056;-45
2023/01/31 03:19:12;;;;;;;15.57;2.92;;;8.60;54.50;;;;;;5040846;28;20056;-48
2023/01/31 03:21:46;;;;;;;16.88;3.25;;;8.60;54.50;;;;;;5041170;28;20052;-49
2023/01/31 03:24:14;;;;;;;13.15;2.55;;;8.60;54.40;;;;;;5039340;28;20049;-47
2023/01/31 03:26:42;;;;;;;16.25;2.80;;;8.60;54.30;;;;;;5042057;28;20441;-46
2023/01/31 03:29:13;;;;;;;18.65;2.85;;;8.60;54.20;;;;;;5044163;28;20057;-49
2023/01/31 03:31:48;;;;;;;12.95;2.08;;;8.60;54.10;;;;;;5042434;28;20053;-43
2023/01/31 03:34:16;;;;;;;13.02;2.10;;;8.60;54.10;;;;;;5040233;28;20056;-44
2023/01/31 03:36:52;;;;;;;16.13;2.78;;;8.60;54.10;;;;;;5038520;28;20059;-48
2023/01/31 03:39:28;;;;;;;21.10;2.83;;;8.60;54.00;;;;;;5043065;28;20053;-47
2023/01/31 03:42:06;;;;;;;23.55;3.13;;;8.60;54.10;;;;;;5042682;28;20049;-49
2023/01/31 03:44:40;;;;;;;21.50;4.47;;;8.60;54.10;;;;;;5043315;28;20060;-49
2023/01/31 03:47:14;;;;;;;18.92;4.07;;;8.60;54.00;;;;;;5044792;28;20524;-47
2023/01/31 03:49:43;;;;;;;16.30;2.88;;;8.60;54.00;;;;;;5041618;28;20052;-47
2023/01/31 03:52:16;;;;;;;17.27;2.67;;;8.60;54.20;;;;;;5043025;28;20045;-46
2023/01/31 03:54:49;;;;;;;16.35;3.20;;;8.60;54.00;;;;;;5041067;28;20064;-46
2023/01/31 03:57:21;;;;;;;16.98;2.90;;;8.60;54.40;;;;;;5044306;28;20413;-46
2023/01/31 03:59:52;;;;;;;16.85;2.50;;;8.50;54.00;;;;;;5039858;28;21931;-49
2023/01/31 04:02:21;;;;;;;16.70;3.00;;;8.50;54.00;;;;;;5039442;28;20052;-47
2023/01/31 04:04:53;;;;;;;18.05;2.80;;;8.60;54.10;;;;;;5042691;28;20060;-46
2023/01/31 04:07:21;;;;;;;15.98;2.47;;;8.60;54.00;;;;;;5038995;28;20053;-47
2023/01/31 04:09:48;;;;;;;15.85;3.00;;;8.60;54.00;;;;;;5042063;28;20067;-48
2023/01/31 04:12:16;;;;;;;18.90;3.28;;;8.60;53.90;;;;;;5041740;28;20064;-46
2023/01/31 04:14:43;;;;;;;13.82;2.47;;;8.60;53.90;;;;;;5043306;28;20060;-44
2023/01/31 04:17:10;;;;;;;17.80;2.90;;;8.60;54.00;;;;;;5037822;28;20504;-44
2023/01/31 04:19:37;;;;;;;19.25;4.03;;;8.60;54.10;;;;;;5040489;28;20057;-45
2023/01/31 04:22:05;;;;;;;15.23;3.25;;;8.60;54.00;;;;;;5039443;28;20057;-48
2023/01/31 04:24:33;;;;;;;17.95;2.95;;;8.60;54.00;;;;;;5041224;28;20056;-45
2023/01/31 04:27:00;;;;;;;19.25;2.50;;;8.60;54.00;;;;;;5037716;28;20049;-50
2023/01/31 04:29:28;;;;;;;18.45;3.17;;;8.60;54.00;;;;;;5041989;28;20052;-45
2023/01/31 04:31:55;;;;;;;15.80;2.80;;;8.70;54.10;;;;;;5041268;28;20048;-47
2023/01/31 04:34:22;;;;;;;15.27;2.83;;;8.60;54.10;;;;;;5037361;28;20056;-45
2023/01/31 04:36:50;;;;;;;19.98;3.60;;;8.60;54.10;;;;;;5042159;28;20416;-46
2023/01/31 04:39:17;;;;;;;15.90;2.78;;;8.60;54.10;;;;;;5041518;28;20049;-44
2023/01/31 04:41:45;;;;;;;16.73;3.22;;;8.60;54.10;;;;;;5041254;28;20045;-45
2023/01/31 04:44:12;;;;;;;16.83;2.83;;;8.70;54.00;;;;;;5037673;28;20064;-47
2023/01/31 04:46:40;;;;;;;16.88;2.88;;;8.70;53.80;;;;;;5038706;28;20056;-48
2023/01/31 04:49:07;;;;;;;18.73;2.85;;;8.70;53.80;;;;;;5042820;28;20409;-44
2023/01/31 04:51:34;;;;;;;21.38;3.58;;;8.70;53.90;;;;;;5038305;28;20067;-49
2023/01/31 04:54:01;;;;;;;26.10;3.55;;;8.60;53.90;;;;;;5035342;28;20048;-48
2023/01/31 04:56:28;;;;;;;18.38;3.60;;;8.70;53.80;;;;;;5042522;28;20049;-47
2023/01/31 04:58:57;;;;;;;20.42;3.92;;;8.60;53.80;;;;;;5041830;28;20057;-47
2023/01/31 05:01:25;;;;;;;23.85;3.83;;;8.60;53.80;;;;;;5041013;28;20536;-45
2023/01/31 05:03:52;;;;;;;19.02;3.80;;;8.60;53.80;;;;;;5040862;28;20057;-49
2023/01/31 05:06:19;;;;;;;18.95;4.13;;;8.60;53.90;;;;;;5040877;28;20405;-47
2023/01/31 05:08:47;;;;;;;19.60;3.45;;;8.60;54.00;;;;;;5039446;28;20048;-47
2023/01/31 05:11:14;;;;;;;19.33;3.78;;;8.60;54.10;;;;;;5041525;28;20390;-49
2023/01/31 05:13:42;;;;;;;20.95;4.07;;;8.50;54.10;;;;;;5039072;28;20056;-48
2023/01/31 05:16:12;;;;;;;21.02;3.92;;;8.50;54.10;;;;;;5039105;28;20378;-46
2023/01/31 05:18:39;;;;;;;21.70;4.13;;;8.50;54.20;;;;;;5033188;28;20064;-48
2023/01/31 05:21:07;;;;;;;20.45;4.25;;;8.50;54.20;;;;;;5040301;28;20056;-45
2023/01/31 05:23:35;;;;;;;17.10;4.60;;;8.50;54.20;;;;;;5042209;28;20064;-48
2023/01/31 05:26:02;;;;;;;16.27;3.60;;;8.50;54.20;;;;;;5035207;28;20516;-48
2023/01/31 05:28:30;;;;;;;25.23;5.05;;;8.50;54.20;;;;;;5042145;28;20064;-48
2023/01/31 05:31:02;;;;;;;18.60;4.55;;;8.40;54.10;;;;;;5040304;28;20417;-44
2023/01/31 05:33:32;;;;;;;22.25;4.30;;;8.40;54.10;;;;;;5038073;28;20079;-48
2023/01/31 05:35:59;;;;;;;20.63;5.05;;;8.40;54.10;;;;;;5038087;28;20041;-48
2023/01/31 05:38:27;;;;;;;22.92;5.03;;;8.40;54.10;;;;;;5034353;28;20059;-45
2023/01/31 05:40:54;;;;;;;20.20;4.93;;;8.40;54.10;;;;;;5040745;28;20057;-46
2023/01/31 05:43:22;;;;;;;23.75;6.03;;;8.30;54.20;;;;;;5041684;28;20064;-48
2023/01/31 05:45:49;;;;;;;20.63;4.95;;;8.30;54.20;;;;;;5040771;28;20064;-46
2023/01/31 05:48:16;;;;;;;21.65;4.65;;;8.30;54.20;;;;;;5035080;28;20060;-46
2023/01/31 05:50:45;;;;;;;23.58;5.15;;;8.20;54.30;;;;;;5037913;28;20057;-47
2023/01/31 05:53:12;;;;;;;21.02;5.22;;;8.20;54.30;;;;;;5042595;28;20053;-44
2023/01/31 05:55:39;;;;;;;23.27;5.38;;;8.20;54.30;;;;;;5040338;28;20056;-45
2023/01/31 05:58:06;;;;;;;20.25;4.63;;;8.20;54.40;;;;;;5033768;28;20488;-44
2023/01/31 06:00:34;;;;;;;20.10;4.93;;;8.20;54.40;;;;;;5026791;28;20053;-45
2023/01/31 06:03:01;;;;;;;25.27;4.95;;;8.20;54.50;;;;;;5032505;28;20059;-45
2023/01/31 06:05:28;;;;;;;25.15;5.30;;;8.20;54.60;;;;;;5038792;28;20041;-46
2023/01/31 06:07:56;;;;;;;23.73;5.38;;;8.10;54.60;;;;;;5037939;28;20057;-47
2023/01/31 06:10:24;;;;;;;22.98;5.43;;;8.10;54.60;;;;;;5038867;28;20044;-48
2023/01/31 06:12:51;;;;;;;19.67;5.10;;;8.10;54.70;;;;;;5041259;28;20060;-47
2023/01/31 06:15:18;;;;;;;28.50;6.57;;;8.10;54.70;;;;;;5040806;28;20120;-47
2023/01/31 06:17:45;;;;;;;24.02;5.85;;;8.20;54.80;;;;;;5038004;28;20049;-47
2023/01/31 06:20:13;;;;;;;21.58;5.65;;;8.10;54.80;;;;;;5039939;28;20052;-48
2023/01/31 06:22:41;;;;;;;26.40;5.90;;;8.10;54.70;;;;;;5039591;28;20056;-47
2023/01/31 06:25:10;;;;;;;25.67;8.40;;;8.20;54.70;;;;;;5039282;28;20056;-42
2023/01/31 06:27:37;;;;;;;28.33;7.72;;;8.10;54.70;;;;;;5036043;28;20049;-44
2023/01/31 06:30:05;;;;;;;54.10;18.38;;;8.10;54.80;;;;;;5038848;28;20056;-44
2023/01/31 06:32:32;;;;;;;130.90;50.08;;;8.10;54.80;;;;;;5038685;28;20053;-48
2023/01/31 06:35:02;;;;;;;154.30;61.60;;;8.10;54.80;;;;;;5040722;28;20053;-47
2023/01/31 06:37:30;;;;;;;46.05;17.45;;;8.10;55.00;;;;;;5042374;28;20500;-47
2023/01/31 06:39:58;;;;;;;34.47;10.50;;;8.10;54.90;;;;;;5040857;28;20056;-46
2023/01/31 06:42:26;;;;;;;31.95;6.53;;;8.10;54.90;;;;;;5038872;28;20057;-48
2023/01/31 06:44:53;;;;;;;30.38;7.45;;;8.10;54.80;;;;;;5031127;28;20057;-50
2023/01/31 06:47:21;;;;;;;26.27;7.75;;;8.10;54.70;;;;;;5039659;28;20064;-48
2023/01/31 06:49:48;;;;;;;31.80;6.20;;;8.10;54.70;;;;;;5039642;28;20053;-45
2023/01/31 06:52:15;;;;;;;30.77;9.48;;;8.10;54.70;;;;;;5038627;28;20053;-46
2023/01/31 06:54:42;;;;;;;24.65;8.77;;;8.10;54.80;;;;;;5037729;28;20056;-47
2023/01/31 06:57:09;;;;;;;25.27;7.07;;;8.10;54.90;;;;;;5036597;28;20409;-49
2023/01/31 06:59:38;;;;;;;27.63;8.00;;;8.10;54.80;;;;;;5037468;28;20064;-44
2023/01/31 07:02:05;;;;;;;30.58;8.30;;;8.10;54.90;;;;;;5037178;28;20063;-47
2023/01/31 07:04:32;;;;;;;21.17;5.55;;;8.10;55.00;;;;;;5039363;28;20060;-48
2023/01/31 07:06:59;;;;;;;26.50;5.60;;;8.10;55.00;;;;;;5039309;28;20057;-47
2023/01/31 07:09:27;;;;;;;18.15;5.15;;;8.10;54.80;;;;;;5038680;28;20060;-45
2023/01/31 07:11:54;;;;;;;23.38;5.72;;;8.10;54.70;;;;;;5039535;28;20417;-46
2023/01/31 07:14:21;;;;;;;27.27;5.85;;;8.10;54.80;;;;;;5040348;28;20048;-45
2023/01/31 07:16:50;;;;;;;18.08;5.57;;;8.10;54.80;;;;;;5038214;28;20049;-47
2023/01/31 07:19:17;;;;;;;18.90;5.28;;;8.10;54.80;;;;;;5040182;28;20057;-44
2023/01/31 07:21:46;;;;;;;21.77;5.47;;;8.10;54.90;;;;;;5037431;28;20053;-50
2023/01/31 07:24:13;;;;;;;20.73;5.32;;;8.20;54.80;;;;;;5036195;28;20064;-49
2023/01/31 07:26:40;;;;;;;16.27;5.05;;;8.20;54.90;;;;;;5039388;28;20049;-47
2023/01/31 07:29:08;;;;;;;19.83;5.30;;;8.20;54.80;;;;;;5039880;28;20502;-45
2023/01/31 07:31:35;;;;;;;26.63;6.18;;;8.20;54.70;;;;;;5039694;28;20053;-47
2023/01/31 07:34:03;;;;;;;19.23;5.00;;;8.20;54.70;;;;;;5038955;28;20500;-50
2023/01/31 07:36:31;;;;;;;20.85;6.25;;;8.20;54.70;;;;;;5038625;28;20053;-48
2023/01/31 07:39:00;;;;;;;25.15;6.30;;;8.20;54.70;;;;;;5039934;28;20057;-45
2023/01/31 07:41:28;;;;;;;21.15;5.53;;;8.20;54.60;;;;;;5038733;28;20068;-49
2023/01/31 07:43:56;;;;;;;22.50;5.00;;;8.20;54.50;;;;;;5042298;28;20063;-47
2023/01/31 07:46:23;;;;;;;25.60;5.38;;;8.20;54.50;;;;;;5039492;28;20064;-49
2023/01/31 07:48:50;;;;;;;19.10;4.30;;;8.20;54.40;;;;;;5041485;28;20056;-45
2023/01/31 07:51:19;;;;;;;18.98;4.85;;;8.30;54.50;;;;;;5041721;28;20056;-44
2023/01/31 07:53:46;;;;;;;21.52;4.57;;;8.20;54.50;;;;;;5038900;28;20432;-48
2023/01/31 07:56:15;;;;;;;15.60;4.47;;;8.20;54.50;;;;;;5035815;28;20056;-46
2023/01/31 07:58:43;;;;;;;18.65;4.03;;;8.30;54.60;;;;;;5041616;28;20485;-48
2023/01/31 08:03:59;;;;;;;19.88;4.47;;;8.30;54.70;;;;;;5050760;28;20055;-46
2023/01/31 08:06:29;;;;;;;17.75;4.35;;;8.30;54.70;;;;;;5040694;28;20056;-44
2023/01/31 08:08:57;;;;;;;19.27;3.92;;;8.30;54.70;;;;;;5042053;28;20071;-47
2023/01/31 08:11:24;;;;;;;18.20;4.68;;;8.30;54.70;;;;;;5043297;28;20057;-45
2023/01/31 08:13:51;;;;;;;20.90;4.50;;;8.30;54.80;;;;;;5044510;28;20080;-48
2023/01/31 08:16:19;;;;;;;20.88;4.28;;;8.30;54.70;;;;;;5041073;28;20417;-43
2023/01/31 08:18:47;;;;;;;14.70;3.83;;;8.30;54.70;;;;;;5042452;28;20413;-45
2023/01/31 08:21:15;;;;;;;23.95;3.80;;;8.40;54.90;;;;;;5041112;28;20056;-47
2023/01/31 08:23:44;;;;;;;18.70;4.20;;;8.40;54.90;;;;;;5042064;28;22541;-45
2023/01/31 08:26:14;;;;;;;25.15;4.00;;;8.40;54.90;;;;;;5043110;28;20059;-47
2023/01/31 08:28:42;;;;;;;18.00;3.95;;;8.40;54.80;;;;;;5038543;28;20057;-46
2023/01/31 08:31:13;;;;;;;22.40;3.83;;;8.40;54.80;;;;;;5042268;28;20064;-46
2023/01/31 08:33:41;;;;;;;18.48;4.25;;;8.50;54.70;;;;;;5038773;28;20382;-47
2023/01/31 08:36:10;;;;;;;16.45;3.50;;;8.50;54.70;;;;;;5040006;28;20079;-46
2023/01/31 08:38:37;;;;;;;22.85;4.10;;;8.50;54.70;;;;;;5037398;28;20045;-46
2023/01/31 08:41:06;;;;;;;24.70;4.70;;;8.50;54.70;;;;;;5039708;28;20545;-48
2023/01/31 08:43:33;;;;;;;24.23;4.20;;;8.60;54.70;;;;;;5042296;28;20080;-47
2023/01/31 08:46:00;;;;;;;17.60;3.97;;;8.60;54.70;;;;;;5040341;28;20063;-45
2023/01/31 08:48:28;;;;;;;17.77;5.13;;;8.60;54.50;;;;;;5041673;28;20060;-47
2023/01/31 08:50:55;;;;;;;26.80;7.65;;;8.60;54.50;;;;;;5041280;28;20052;-46
2023/01/31 08:53:22;;;;;;;19.95;5.88;;;8.60;54.40;;;;;;5042459;28;20347;-49
2023/01/31 08:55:49;;;;;;;24.58;9.32;;;8.70;54.40;;;;;;5037803;28;20431;-47
2023/01/31 08:58:18;;;;;;;17.88;5.20;;;8.70;54.40;;;;;;5042166;28;20053;-46
2023/01/31 09:00:45;;;;;;;17.17;4.20;;;8.70;54.50;;;;;;5037341;28;20076;-49
2023/01/31 09:03:16;;;;;;;20.42;4.63;;;8.70;54.40;;;;;;5041210;28;20068;-46
2023/01/31 09:05:43;;;;;;;15.27;3.75;;;8.70;54.40;;;;;;5039949;28;20477;-48
2023/01/31 09:08:11;;;;;;;15.85;3.50;;;8.70;54.80;;;;;;5037169;28;20049;-47
2023/01/31 09:10:38;;;;;;;17.92;4.78;;;8.70;54.30;;;;;;5037434;28;20049;-46
2023/01/31 09:13:05;;;;;;;20.30;4.43;;;8.80;54.30;;;;;;5035516;28;20049;-45
2023/01/31 09:15:34;;;;;;;16.77;4.15;;;8.80;54.20;;;;;;5040008;28;20409;-48
2023/01/31 09:18:02;;;;;;;18.50;4.47;;;8.80;54.20;;;;;;5034567;28;20057;-46
2023/01/31 09:20:29;;;;;;;15.57;4.03;;;8.80;54.30;;;;;;5040237;28;20068;-44
2023/01/31 09:22:56;;;;;;;15.57;4.15;;;8.80;54.30;;;;;;5038422;28;20060;-48
2023/01/31 09:25:24;;;;;;;15.00;4.70;;;8.80;54.30;;;;;;5039486;28;20390;-47
2023/01/31 09:27:52;;;;;;;25.65;6.47;;;8.80;54.20;;;;;;5040604;28;20068;-48
2023/01/31 09:30:20;;;;;;;22.17;6.57;;;8.90;54.30;;;;;;5042464;28;20049;-46
2023/01/31 09:32:49;;;;;;;20.20;6.95;;;8.90;54.70;;;;;;5026563;28;20056;-48
2023/01/31 09:35:17;;;;;;;25.83;8.10;;;8.90;54.20;;;;;;5028758;28;20049;-47
2023/01/31 09:37:45;;;;;;;22.55;7.00;;;8.90;54.20;;;;;;5038719;28;20067;-46
2023/01/31 09:40:21;;;;;;;22.05;6.57;;;8.90;54.30;;;;;;5040572;28;20057;-45
2023/01/31 09:42:50;;;;;;;24.85;5.43;;;8.90;54.30;;;;;;5037983;28;20052;-48
2023/01/31 09:45:26;;;;;;;19.52;4.72;;;8.90;54.30;;;;;;5041812;28;20053;-46
2023/01/31 09:47:57;;;;;;;14.65;3.92;;;9.00;54.20;;;;;;5038930;28;20488;-44
2023/01/31 09:50:34;;;;;;;20.42;4.28;;;9.00;54.20;;;;;;5037392;28;20057;-50
2023/01/31 09:53:02;;;;;;;16.40;3.75;;;9.00;54.10;;;;;;5040454;28;20060;-47
2023/01/31 09:55:36;;;;;;;16.13;5.10;;;9.00;54.30;;;;;;5041500;28;20048;-45
2023/01/31 09:58:13;;;;;;;20.48;3.92;;;9.00;54.00;;;;;;5211648;23;20032;-47
2023/01/31 10:00:48;;;;;;;18.80;3.55;;;9.00;53.90;;;;;;5056921;28;20517;-49
2023/01/31 10:03:53;;;;;;;16.90;3.97;;;9.10;54.00;;;;;;5059372;28;20060;-49
2023/01/31 10:06:24;;;;;;;13.73;3.58;;;9.10;53.90;;;;;;4982054;28;20058;-48
2023/01/31 10:08:56;;;;;;;28.42;5.53;;;9.10;54.00;;;;;;5048332;28;21190;-50
2023/01/31 10:11:31;;;;;;;24.75;4.68;;;9.10;54.00;;;;;;5148991;22;20250;-46
2023/01/31 10:14:04;;;;;;;20.38;5.05;;;9.10;54.60;;;;;;5092851;28;20265;-50
2023/01/31 10:16:37;;;;;;;19.70;4.80;;;9.10;54.10;;;;;;5089288;28;20262;-47
2023/01/31 10:19:09;;;;;;;16.67;4.72;;;9.20;54.30;;;;;;5091003;28;20052;-48
2023/01/31 10:21:42;;;;;;;18.83;4.53;;;9.20;54.30;;;;;;5088658;28;20350;-46
2023/01/31 10:24:16;;;;;;;25.97;5.67;;;9.20;54.30;;;;;;5088299;28;20238;-46
2023/01/31 10:26:46;;;;;;;15.57;4.10;;;9.20;54.40;;;;;;5070938;28;20052;-48
2023/01/31 10:29:21;;;;;;;16.63;4.78;;;9.20;54.40;;;;;;5089888;28;20048;-46
2023/01/31 10:57:49;;;;;;;20.27;4.13;;;9.40;54.40;;;;;;6103744;22;20023;-49
2023/01/31 11:27:59;;;;;;;22.23;4.20;;;9.50;54.70;;;;;;6307951;22;1231331;-48
2023/01/31 11:30:29;;;;;;;20.70;4.18;;;9.60;54.80;;;;;;6084371;22;20418;-51
2023/01/31 11:32:57;;;;;;;20.00;4.63;;;9.60;54.80;;;;;;6244621;22;20027;-46
2023/01/31 11:35:27;;;;;;;24.35;5.40;;;9.60;54.80;;;;;;6242430;22;20028;-47
2023/01/31 11:37:56;;;;;;;20.52;4.30;;;9.60;54.70;;;;;;6249596;22;20016;-46
2023/01/31 11:40:29;;;;;;;20.75;3.80;;;9.70;54.70;;;;;;6251987;22;20026;-48
2023/01/31 11:43:00;;;;;;;22.38;4.18;;;9.70;54.70;;;;;;6254384;22;20192;-46
2023/01/31 11:45:30;;;;;;;19.27;4.40;;;9.70;54.70;;;;;;6254630;22;20024;-47
2023/01/31 11:47:59;;;;;;;23.00;4.13;;;9.70;54.80;;;;;;6250984;22;20118;-46
2023/01/31 12:08:41;;;;;;;26.42;5.28;;;9.90;54.70;;;;;;6272567;22;20037;-49
2023/01/31 12:11:29;;;;;;;15.23;3.90;;;9.90;54.60;;;;;;6268793;22;20033;-46
2023/01/31 12:14:09;;;;;;;15.15;4.47;;;10.00;54.60;;;;;;6265920;22;20054;-47
2023/01/31 12:16:37;;;;;;;20.05;4.20;;;10.00;54.70;;;;;;6266398;22;20038;-46
2023/01/31 12:19:18;;;;;;;16.00;4.32;;;10.00;54.70;;;;;;6266648;22;20028;-50
2023/01/31 12:21:55;;;;;;;18.40;3.60;;;10.00;54.70;;;;;;6261918;22;20474;-48
2023/01/31 12:24:39;;;;;;;25.27;4.47;;;10.00;54.60;;;;;;6266033;22;20441;-48
2023/01/31 12:27:20;;;;;;;19.50;4.18;;;10.00;54.60;;;;;;6265004;22;20447;-48
2023/01/31 12:30:08;;;;;;;22.77;4.13;;;10.10;54.60;;;;;;6267582;22;20024;-49
2023/01/31 12:32:57;;;;;;;16.45;3.90;;;10.10;54.40;;;;;;6266461;22;20325;-50
2023/01/31 12:35:36;;;;;;;10.48;2.92;;;10.10;54.30;;;;;;6266984;22;20032;-46
2023/01/31 12:38:16;;;;;;;14.52;3.58;;;10.10;54.30;;;;;;6267185;22;20027;-46
2023/01/31 12:40:55;;;;;;;12.07;3.33;;;10.10;54.20;;;;;;6264144;22;20023;-47
2023/01/31 12:43:39;;;;;;;14.18;3.30;;;10.10;54.30;;;;;;6264816;22;20027;-47
2023/01/31 12:46:14;;;;;;;9.38;2.92;;;10.10;54.20;;;;;;6264417;22;20027;-45
2023/01/31 12:48:58;;;;;;;10.63;3.05;;;10.10;54.20;;;;;;6267719;22;20444;-48
2023/01/31 12:51:43;;;;;;;13.90;3.25;;;10.10;54.20;;;;;;6266511;22;20032;-46
2023/01/31 12:54:25;;;;;;;20.63;3.35;;;10.10;54.20;;;;;;6266473;22;20031;-49
2023/01/31 12:57:04;;;;;;;13.95;3.28;;;10.10;54.10;;;;;;6265497;22;20046;-49
2023/01/31 12:59:45;;;;;;;15.40;3.10;;;10.10;54.10;;;;;;6267480;22;20023;-49
2023/01/31 13:02:24;;;;;;;15.25;2.67;;;10.10;54.10;;;;;;6267049;22;20024;-47
2023/01/31 13:04:57;;;;;;;12.27;2.95;;;10.10;54.00;;;;;;6265942;22;20344;-45
2023/01/31 13:07:30;;;;;;;8.67;2.40;;;10.10;54.00;;;;;;6266466;22;20032;-47
2023/01/31 13:10:01;;;;;;;14.07;3.80;;;10.10;54.10;;;;;;6264468;22;20028;-46
2023/01/31 13:12:33;;;;;;;10.73;2.80;;;10.20;54.10;;;;;;6266612;22;20466;-49
2023/01/31 13:15:05;;;;;;;11.55;4.03;;;10.20;54.10;;;;;;6266402;22;20030;-51
2023/01/31 13:17:35;;;;;;;15.20;3.00;;;10.10;54.10;;;;;;6266257;22;20027;-48
2023/01/31 13:20:22;;;;;;;14.13;3.08;;;10.20;54.10;;;;;;6266392;22;20352;-48
2023/01/31 13:22:55;;;;;;;10.05;2.95;;;10.20;54.10;;;;;;6266359;22;20026;-50
2023/01/31 13:25:29;;;;;;;13.20;2.92;;;10.20;54.10;;;;;;6264097;22;20467;-49
2023/01/31 13:28:01;;;;;;;14.18;3.10;;;10.20;54.10;;;;;;6265857;22;20093;-50
2023/01/31 13:30:36;;;;;;;12.30;2.47;;;10.20;54.10;;;;;;6267131;22;20024;-50
2023/01/31 13:33:18;;;;;;;10.45;3.90;;;10.20;54.10;;;;;;6267141;22;20032;-48
2023/01/31 13:35:50;;;;;;;10.07;3.08;;;10.20;54.10;;;;;;6263085;22;20399;-47
2023/01/31 13:38:20;;;;;;;12.40;2.80;;;10.20;54.10;;;;;;6266347;22;20035;-44
2023/01/31 13:40:51;;;;;;;10.32;2.95;;;10.20;54.20;;;;;;6264565;22;20023;-47
2023/01/31 13:43:20;;;;;;;8.60;2.88;;;10.20;54.20;;;;;;6267032;22;20024;-50
2023/01/31 13:45:55;;;;;;;8.10;2.50;;;10.20;54.30;;;;;;6267063;22;20485;-48
2023/01/31 13:48:28;;;;;;;11.02;2.90;;;10.20;54.30;;;;;;6266869;22;20031;-50
2023/01/31 13:51:01;;;;;;;7.87;2.50;;;10.20;54.30;;;;;;6265312;22;20027;-47
2023/01/31 13:53:32;;;;;;;7.07;1.95;;;10.20;54.30;;;;;;6264635;22;20972;-49
2023/01/31 13:56:02;;;;;;;8.30;1.92;;;10.30;54.40;;;;;;6264462;22;20038;-47
2023/01/31 13:58:33;;;;;;;5.78;2.42;;;10.30;54.40;;;;;;6266131;22;20031;-47
2023/01/31 14:01:06;;;;;;;6.43;1.98;;;10.30;54.40;;;;;;6265442;22;20024;-48
2023/01/31 14:04:13;;;;;;;7.15;2.42;;;10.30;54.40;;;;;;6266327;22;20028;-46
2023/01/31 14:07:14;;;;;;;6.30;2.15;;;10.30;54.90;;;;;;6265338;22;20035;-49
2023/01/31 14:09:45;;;;;;;6.15;1.83;;;10.30;54.50;;;;;;6261321;22;20027;-47
2023/01/31 14:12:33;;;;;;;5.20;1.58;;;10.30;54.50;;;;;;6266547;22;20031;-49
2023/01/31 14:15:01;;;;;;;5.53;1.70;;;10.30;54.70;;;;;;6266396;22;20032;-48
2023/01/31 14:17:57;;;;;;;4.60;1.88;;;10.30;54.70;;;;;;6266891;22;20328;-49
2023/01/31 14:20:27;;;;;;;4.25;1.55;;;10.30;54.80;;;;;;6265703;22;20019;-49
2023/01/31 14:23:28;;;;;;;5.80;1.65;;;10.30;54.90;;;;;;6265289;22;20352;-45
2023/01/31 14:25:57;;;;;;;4.25;1.58;;;10.30;55.10;;;;;;6264731;22;20048;-51